sensor_id;sensor_type;location;lat;lon;timestamp;P1;durP1;ratioP1;P2;durP2;ratioP2
57241;SDS011;43095;53.302;5.786;2023-04-06T00:01:39;14.10;;;9.55;;
57241;SDS011;43095;53.302;5.786;2023-04-06T00:04:06;12.05;;;8.90;;
57241;SDS011;43095;53.302;5.786;2023-04-06T00:06:33;13.10;;;8.23;;
57241;SDS011;43095;53.302;5.786;2023-04-06T00:09:00;15.25;;;9.32;;
57241;SDS011;43095;53.302;5.786;2023-04-06T00:11:27;14.75;;;9.25;;
57241;SDS011;43095;53.302;5.786;2023-04-06T00:13:54;13.82;;;9.07;;
57241;SDS011;43095;53.302;5.786;2023-04-06T00:16:21;13.98;;;9.55;;
57241;SDS011;43095;53.302;5.786;2023-04-06T00:18:50;14.20;;;9.10;;
57241;SDS011;43095;53.302;5.786;2023-04-06T00:21:17;15.63;;;9.18;;
57241;SDS011;43095;53.302;5.786;2023-04-06T00:23:44;17.05;;;9.30;;
57241;SDS011;43095;53.302;5.786;2023-04-06T00:26:11;16.88;;;9.02;;
57241;SDS011;43095;53.302;5.786;2023-04-06T00:28:46;18.30;;;9.70;;
57241;SDS011;43095;53.302;5.786;2023-04-06T00:31:14;17.33;;;9.73;;
57241;SDS011;43095;53.302;5.786;2023-04-06T00:33:41;15.05;;;9.88;;
57241;SDS011;43095;53.302;5.786;2023-04-06T00:36:08;15.52;;;9.20;;
57241;SDS011;43095;53.302;5.786;2023-04-06T00:38:38;13.50;;;9.27;;
57241;SDS011;43095;53.302;5.786;2023-04-06T00:41:05;21.52;;;10.35;;
57241;SDS011;43095;53.302;5.786;2023-04-06T00:43:32;14.90;;;9.40;;
57241;SDS011;43095;53.302;5.786;2023-04-06T00:45:59;14.38;;;8.60;;
57241;SDS011;43095;53.302;5.786;2023-04-06T00:48:26;13.60;;;8.73;;
57241;SDS011;43095;53.302;5.786;2023-04-06T00:50:53;13.38;;;9.15;;
57241;SDS011;43095;53.302;5.786;2023-04-06T00:53:21;15.07;;;9.18;;
57241;SDS011;43095;53.302;5.786;2023-04-06T00:55:49;15.88;;;10.38;;
57241;SDS011;43095;53.302;5.786;2023-04-06T00:58:16;17.67;;;10.40;;
57241;SDS011;43095;53.302;5.786;2023-04-06T01:00:49;14.43;;;9.63;;
57241;SDS011;43095;53.302;5.786;2023-04-06T01:03:19;17.20;;;9.60;;
57241;SDS011;43095;53.302;5.786;2023-04-06T01:05:47;16.23;;;10.10;;
57241;SDS011;43095;53.302;5.786;2023-04-06T01:08:22;15.82;;;9.38;;
57241;SDS011;43095;53.302;5.786;2023-04-06T01:10:53;16.10;;;10.43;;
57241;SDS011;43095;53.302;5.786;2023-04-06T01:15:59;14.57;;;9.40;;
57241;SDS011;43095;53.302;5.786;2023-04-06T01:18:34;15.88;;;9.32;;
57241;SDS011;43095;53.302;5.786;2023-04-06T01:21:12;18.05;;;9.73;;
57241;SDS011;43095;53.302;5.786;2023-04-06T01:24:14;16.33;;;9.40;;
57241;SDS011;43095;53.302;5.786;2023-04-06T01:27:03;15.88;;;9.55;;
57241;SDS011;43095;53.302;5.786;2023-04-06T01:29:59;18.70;;;9.75;;
57241;SDS011;43095;53.302;5.786;2023-04-06T01:32:46;14.07;;;9.25;;
57241;SDS011;43095;53.302;5.786;2023-04-06T01:35:25;13.43;;;9.40;;
57241;SDS011;43095;53.302;5.786;2023-04-06T01:38:19;13.23;;;8.55;;
57241;SDS011;43095;53.302;5.786;2023-04-06T01:40:50;14.20;;;10.02;;
57241;SDS011;43095;53.302;5.786;2023-04-06T01:43:20;15.07;;;9.05;;
57241;SDS011;43095;53.302;5.786;2023-04-06T01:46:18;15.32;;;10.15;;
57241;SDS011;43095;53.302;5.786;2023-04-06T01:48:56;13.85;;;8.98;;
57241;SDS011;43095;53.302;5.786;2023-04-06T01:51:48;15.35;;;9.23;;
57241;SDS011;43095;53.302;5.786;2023-04-06T01:54:30;15.23;;;9.88;;
57241;SDS011;43095;53.302;5.786;2023-04-06T01:57:14;17.30;;;9.30;;
57241;SDS011;43095;53.302;5.786;2023-04-06T01:59:46;13.43;;;9.02;;
57241;SDS011;43095;53.302;5.786;2023-04-06T02:02:21;12.15;;;8.65;;
57241;SDS011;43095;53.302;5.786;2023-04-06T02:05:19;14.15;;;9.10;;
57241;SDS011;43095;53.302;5.786;2023-04-06T02:08:19;12.50;;;8.30;;
57241;SDS011;43095;53.302;5.786;2023-04-06T02:11:10;14.43;;;9.02;;
57241;SDS011;43095;53.302;5.786;2023-04-06T02:14:10;12.27;;;8.63;;
57241;SDS011;43095;53.302;5.786;2023-04-06T02:16:58;12.32;;;8.50;;
57241;SDS011;43095;53.302;5.786;2023-04-06T02:19:26;12.65;;;8.65;;
57241;SDS011;43095;53.302;5.786;2023-04-06T02:21:53;15.95;;;9.93;;
57241;SDS011;43095;53.302;5.786;2023-04-06T02:24:24;13.85;;;9.18;;
57241;SDS011;43095;53.302;5.786;2023-04-06T02:26:51;13.10;;;8.88;;
57241;SDS011;43095;53.302;5.786;2023-04-06T02:29:18;14.55;;;8.80;;
57241;SDS011;43095;53.302;5.786;2023-04-06T02:31:47;13.10;;;9.55;;
57241;SDS011;43095;53.302;5.786;2023-04-06T02:34:14;14.48;;;8.27;;
57241;SDS011;43095;53.302;5.786;2023-04-06T02:36:47;12.45;;;8.65;;
57241;SDS011;43095;53.302;5.786;2023-04-06T02:39:14;11.82;;;8.07;;
57241;SDS011;43095;53.302;5.786;2023-04-06T02:41:42;13.13;;;8.45;;
57241;SDS011;43095;53.302;5.786;2023-04-06T02:44:10;13.10;;;8.48;;
57241;SDS011;43095;53.302;5.786;2023-04-06T02:46:41;12.23;;;8.98;;
57241;SDS011;43095;53.302;5.786;2023-04-06T02:49:08;12.30;;;8.15;;
57241;SDS011;43095;53.302;5.786;2023-04-06T02:51:36;12.75;;;8.55;;
57241;SDS011;43095;53.302;5.786;2023-04-06T02:54:17;13.15;;;8.73;;
57241;SDS011;43095;53.302;5.786;2023-04-06T02:56:44;12.80;;;9.00;;
57241;SDS011;43095;53.302;5.786;2023-04-06T02:59:12;12.52;;;8.52;;
57241;SDS011;43095;53.302;5.786;2023-04-06T03:01:45;13.43;;;8.48;;
57241;SDS011;43095;53.302;5.786;2023-04-06T03:04:12;11.23;;;7.97;;
57241;SDS011;43095;53.302;5.786;2023-04-06T03:06:39;14.50;;;8.70;;
57241;SDS011;43095;53.302;5.786;2023-04-06T03:09:17;11.48;;;8.55;;
57241;SDS011;43095;53.302;5.786;2023-04-06T03:11:44;12.10;;;8.70;;
57241;SDS011;43095;53.302;5.786;2023-04-06T03:14:11;12.32;;;8.43;;
57241;SDS011;43095;53.302;5.786;2023-04-06T03:16:38;14.40;;;8.68;;
57241;SDS011;43095;53.302;5.786;2023-04-06T03:19:08;12.68;;;8.90;;
57241;SDS011;43095;53.302;5.786;2023-04-06T03:21:36;11.50;;;8.43;;
57241;SDS011;43095;53.302;5.786;2023-04-06T03:24:05;16.75;;;9.65;;
57241;SDS011;43095;53.302;5.786;2023-04-06T03:26:33;12.73;;;8.75;;
57241;SDS011;43095;53.302;5.786;2023-04-06T03:29:04;13.43;;;8.40;;
57241;SDS011;43095;53.302;5.786;2023-04-06T03:31:32;20.60;;;9.60;;
57241;SDS011;43095;53.302;5.786;2023-04-06T03:34:05;10.45;;;8.10;;
57241;SDS011;43095;53.302;5.786;2023-04-06T03:36:34;13.20;;;9.02;;
57241;SDS011;43095;53.302;5.786;2023-04-06T03:39:03;10.75;;;8.77;;
57241;SDS011;43095;53.302;5.786;2023-04-06T03:41:33;12.20;;;8.65;;
57241;SDS011;43095;53.302;5.786;2023-04-06T03:44:16;14.70;;;9.20;;
57241;SDS011;43095;53.302;5.786;2023-04-06T03:46:43;13.38;;;9.18;;
57241;SDS011;43095;53.302;5.786;2023-04-06T03:49:10;12.73;;;9.35;;
57241;SDS011;43095;53.302;5.786;2023-04-06T03:51:40;14.95;;;9.10;;
57241;SDS011;43095;53.302;5.786;2023-04-06T03:54:07;15.38;;;8.55;;
57241;SDS011;43095;53.302;5.786;2023-04-06T03:56:36;13.48;;;9.30;;
57241;SDS011;43095;53.302;5.786;2023-04-06T03:59:03;11.00;;;8.95;;
57241;SDS011;43095;53.302;5.786;2023-04-06T04:01:30;14.30;;;9.98;;
57241;SDS011;43095;53.302;5.786;2023-04-06T04:03:57;12.13;;;8.73;;
57241;SDS011;43095;53.302;5.786;2023-04-06T04:06:25;13.13;;;8.75;;
57241;SDS011;43095;53.302;5.786;2023-04-06T04:08:52;13.95;;;9.35;;
57241;SDS011;43095;53.302;5.786;2023-04-06T04:11:18;11.18;;;8.52;;
57241;SDS011;43095;53.302;5.786;2023-04-06T04:13:53;13.50;;;9.65;;
57241;SDS011;43095;53.302;5.786;2023-04-06T04:16:20;13.10;;;9.18;;
57241;SDS011;43095;53.302;5.786;2023-04-06T04:18:47;12.45;;;9.10;;
57241;SDS011;43095;53.302;5.786;2023-04-06T04:21:15;15.27;;;9.45;;
57241;SDS011;43095;53.302;5.786;2023-04-06T04:23:42;15.35;;;9.88;;
57241;SDS011;43095;53.302;5.786;2023-04-06T04:26:09;15.07;;;9.63;;
57241;SDS011;43095;53.302;5.786;2023-04-06T04:28:36;15.93;;;9.90;;
57241;SDS011;43095;53.302;5.786;2023-04-06T04:31:04;16.83;;;9.52;;
57241;SDS011;43095;53.302;5.786;2023-04-06T04:33:35;16.45;;;10.25;;
57241;SDS011;43095;53.302;5.786;2023-04-06T04:36:17;14.55;;;9.75;;
57241;SDS011;43095;53.302;5.786;2023-04-06T04:38:45;15.18;;;10.25;;
57241;SDS011;43095;53.302;5.786;2023-04-06T04:41:23;16.02;;;10.52;;
57241;SDS011;43095;53.302;5.786;2023-04-06T04:43:50;12.98;;;9.50;;
57241;SDS011;43095;53.302;5.786;2023-04-06T04:46:51;14.68;;;9.25;;
57241;SDS011;43095;53.302;5.786;2023-04-06T04:49:28;14.80;;;10.07;;
57241;SDS011;43095;53.302;5.786;2023-04-06T04:52:16;15.68;;;10.27;;
57241;SDS011;43095;53.302;5.786;2023-04-06T04:55:09;17.77;;;9.90;;
57241;SDS011;43095;53.302;5.786;2023-04-06T04:57:50;14.18;;;10.30;;
57241;SDS011;43095;53.302;5.786;2023-04-06T05:00:40;13.02;;;9.60;;
57241;SDS011;43095;53.302;5.786;2023-04-06T05:03:31;19.00;;;10.32;;
57241;SDS011;43095;53.302;5.786;2023-04-06T05:06:24;16.20;;;10.07;;
57241;SDS011;43095;53.302;5.786;2023-04-06T05:09:35;14.35;;;9.80;;
57241;SDS011;43095;53.302;5.786;2023-04-06T05:12:11;15.27;;;10.90;;
57241;SDS011;43095;53.302;5.786;2023-04-06T05:15:07;16.20;;;10.52;;
57241;SDS011;43095;53.302;5.786;2023-04-06T05:17:40;15.98;;;10.68;;
57241;SDS011;43095;53.302;5.786;2023-04-06T05:23:12;19.40;;;11.35;;
57241;SDS011;43095;53.302;5.786;2023-04-06T05:25:53;16.05;;;10.18;;
57241;SDS011;43095;53.302;5.786;2023-04-06T05:28:36;18.23;;;10.93;;
57241;SDS011;43095;53.302;5.786;2023-04-06T05:31:16;17.30;;;10.70;;
57241;SDS011;43095;53.302;5.786;2023-04-06T05:34:01;17.48;;;10.82;;
57241;SDS011;43095;53.302;5.786;2023-04-06T05:36:40;14.98;;;10.90;;
57241;SDS011;43095;53.302;5.786;2023-04-06T05:39:26;15.10;;;10.20;;
57241;SDS011;43095;53.302;5.786;2023-04-06T05:42:08;16.92;;;9.73;;
57241;SDS011;43095;53.302;5.786;2023-04-06T05:45:05;16.02;;;11.77;;
57241;SDS011;43095;53.302;5.786;2023-04-06T05:47:55;18.35;;;10.75;;
57241;SDS011;43095;53.302;5.786;2023-04-06T05:50:47;17.88;;;11.25;;
57241;SDS011;43095;53.302;5.786;2023-04-06T05:53:29;16.95;;;10.68;;
57241;SDS011;43095;53.302;5.786;2023-04-06T05:56:02;16.87;;;11.73;;
57241;SDS011;43095;53.302;5.786;2023-04-06T05:58:32;18.42;;;11.90;;
57241;SDS011;43095;53.302;5.786;2023-04-06T06:01:13;20.85;;;11.82;;
57241;SDS011;43095;53.302;5.786;2023-04-06T06:03:46;18.90;;;11.88;;
57241;SDS011;43095;53.302;5.786;2023-04-06T06:06:14;17.42;;;11.05;;
57241;SDS011;43095;53.302;5.786;2023-04-06T06:08:54;15.20;;;11.30;;
57241;SDS011;43095;53.302;5.786;2023-04-06T06:11:21;19.27;;;11.75;;
57241;SDS011;43095;53.302;5.786;2023-04-06T06:13:49;17.67;;;12.70;;
57241;SDS011;43095;53.302;5.786;2023-04-06T06:16:16;17.90;;;12.43;;
57241;SDS011;43095;53.302;5.786;2023-04-06T06:18:46;21.33;;;12.35;;
57241;SDS011;43095;53.302;5.786;2023-04-06T06:21:13;19.83;;;11.98;;
57241;SDS011;43095;53.302;5.786;2023-04-06T06:23:41;20.05;;;11.68;;
57241;SDS011;43095;53.302;5.786;2023-04-06T06:26:14;22.08;;;12.73;;
57241;SDS011;43095;53.302;5.786;2023-04-06T06:28:42;16.23;;;11.68;;
57241;SDS011;43095;53.302;5.786;2023-04-06T06:31:13;16.90;;;12.48;;
57241;SDS011;43095;53.302;5.786;2023-04-06T06:33:41;17.98;;;12.15;;
57241;SDS011;43095;53.302;5.786;2023-04-06T06:36:09;22.83;;;12.95;;
57241;SDS011;43095;53.302;5.786;2023-04-06T06:38:36;18.85;;;11.75;;
57241;SDS011;43095;53.302;5.786;2023-04-06T06:41:05;19.10;;;12.15;;
57241;SDS011;43095;53.302;5.786;2023-04-06T06:43:34;19.48;;;13.23;;
57241;SDS011;43095;53.302;5.786;2023-04-06T06:46:07;20.67;;;12.45;;
57241;SDS011;43095;53.302;5.786;2023-04-06T06:48:39;22.52;;;12.80;;
57241;SDS011;43095;53.302;5.786;2023-04-06T06:51:13;19.45;;;13.02;;
57241;SDS011;43095;53.302;5.786;2023-04-06T06:53:44;19.88;;;12.43;;
57241;SDS011;43095;53.302;5.786;2023-04-06T06:56:16;20.15;;;13.07;;
57241;SDS011;43095;53.302;5.786;2023-04-06T06:59:07;19.38;;;11.75;;
57241;SDS011;43095;53.302;5.786;2023-04-06T07:01:41;19.42;;;12.18;;
57241;SDS011;43095;53.302;5.786;2023-04-06T07:04:49;21.63;;;13.25;;
57241;SDS011;43095;53.302;5.786;2023-04-06T07:07:32;19.05;;;13.15;;
57241;SDS011;43095;53.302;5.786;2023-04-06T07:10:07;17.05;;;12.20;;
57241;SDS011;43095;53.302;5.786;2023-04-06T07:12:42;19.70;;;12.23;;
57241;SDS011;43095;53.302;5.786;2023-04-06T07:15:09;18.13;;;11.20;;
57241;SDS011;43095;53.302;5.786;2023-04-06T07:17:36;18.50;;;10.88;;
57241;SDS011;43095;53.302;5.786;2023-04-06T07:20:03;18.33;;;12.00;;
57241;SDS011;43095;53.302;5.786;2023-04-06T07:22:31;20.08;;;12.55;;
57241;SDS011;43095;53.302;5.786;2023-04-06T07:25:01;19.83;;;11.82;;
57241;SDS011;43095;53.302;5.786;2023-04-06T07:27:28;18.45;;;11.60;;
57241;SDS011;43095;53.302;5.786;2023-04-06T07:29:56;16.83;;;10.20;;
57241;SDS011;43095;53.302;5.786;2023-04-06T07:32:24;21.63;;;10.98;;
57241;SDS011;43095;53.302;5.786;2023-04-06T07:34:52;19.88;;;11.18;;
57241;SDS011;43095;53.302;5.786;2023-04-06T07:37:20;15.98;;;10.80;;
57241;SDS011;43095;53.302;5.786;2023-04-06T07:39:48;18.50;;;11.43;;
57241;SDS011;43095;53.302;5.786;2023-04-06T07:42:17;20.08;;;10.80;;
57241;SDS011;43095;53.302;5.786;2023-04-06T07:44:45;16.67;;;10.77;;
57241;SDS011;43095;53.302;5.786;2023-04-06T07:47:12;17.73;;;11.13;;
57241;SDS011;43095;53.302;5.786;2023-04-06T07:49:39;18.60;;;11.52;;
57241;SDS011;43095;53.302;5.786;2023-04-06T07:52:06;16.33;;;10.02;;
57241;SDS011;43095;53.302;5.786;2023-04-06T07:54:33;16.95;;;10.95;;
57241;SDS011;43095;53.302;5.786;2023-04-06T07:57:00;16.95;;;10.82;;
57241;SDS011;43095;53.302;5.786;2023-04-06T07:59:27;14.98;;;9.75;;
57241;SDS011;43095;53.302;5.786;2023-04-06T08:01:55;16.13;;;10.00;;
57241;SDS011;43095;53.302;5.786;2023-04-06T08:04:22;16.58;;;10.32;;
57241;SDS011;43095;53.302;5.786;2023-04-06T08:06:49;16.50;;;10.00;;
57241;SDS011;43095;53.302;5.786;2023-04-06T08:09:16;13.15;;;9.70;;
57241;SDS011;43095;53.302;5.786;2023-04-06T08:11:43;16.17;;;9.65;;
57241;SDS011;43095;53.302;5.786;2023-04-06T08:14:11;12.75;;;9.27;;
57241;SDS011;43095;53.302;5.786;2023-04-06T08:16:38;16.00;;;9.75;;
57241;SDS011;43095;53.302;5.786;2023-04-06T08:19:05;13.05;;;9.00;;
57241;SDS011;43095;53.302;5.786;2023-04-06T08:21:33;15.30;;;9.95;;
57241;SDS011;43095;53.302;5.786;2023-04-06T08:24:02;14.32;;;9.63;;
57241;SDS011;43095;53.302;5.786;2023-04-06T08:26:32;13.48;;;9.07;;
57241;SDS011;43095;53.302;5.786;2023-04-06T08:28:59;15.88;;;9.85;;
57241;SDS011;43095;53.302;5.786;2023-04-06T08:31:26;13.90;;;10.00;;
57241;SDS011;43095;53.302;5.786;2023-04-06T08:33:54;20.65;;;11.05;;
57241;SDS011;43095;53.302;5.786;2023-04-06T08:36:21;14.60;;;10.50;;
57241;SDS011;43095;53.302;5.786;2023-04-06T08:38:50;16.98;;;10.32;;
57241;SDS011;43095;53.302;5.786;2023-04-06T08:41:21;19.25;;;11.70;;
57241;SDS011;43095;53.302;5.786;2023-04-06T08:43:49;14.75;;;10.48;;
57241;SDS011;43095;53.302;5.786;2023-04-06T08:48:48;18.30;;;11.35;;
57241;SDS011;43095;53.302;5.786;2023-04-06T08:51:16;19.13;;;11.63;;
57241;SDS011;43095;53.302;5.786;2023-04-06T08:53:45;17.80;;;11.75;;
57241;SDS011;43095;53.302;5.786;2023-04-06T08:56:12;18.30;;;11.73;;
57241;SDS011;43095;53.302;5.786;2023-04-06T08:58:39;22.50;;;12.43;;
57241;SDS011;43095;53.302;5.786;2023-04-06T09:01:08;21.40;;;13.52;;
57241;SDS011;43095;53.302;5.786;2023-04-06T09:03:38;22.38;;;12.45;;
57241;SDS011;43095;53.302;5.786;2023-04-06T09:06:08;21.75;;;12.93;;
57241;SDS011;43095;53.302;5.786;2023-04-06T09:08:39;17.50;;;12.20;;
57241;SDS011;43095;53.302;5.786;2023-04-06T09:11:08;24.90;;;14.68;;
57241;SDS011;43095;53.302;5.786;2023-04-06T09:13:50;19.88;;;13.32;;
57241;SDS011;43095;53.302;5.786;2023-04-06T09:16:20;24.83;;;13.75;;
57241;SDS011;43095;53.302;5.786;2023-04-06T09:18:48;23.77;;;13.88;;
57241;SDS011;43095;53.302;5.786;2023-04-06T09:21:16;21.77;;;14.20;;
57241;SDS011;43095;53.302;5.786;2023-04-06T09:23:47;20.17;;;13.43;;
57241;SDS011;43095;53.302;5.786;2023-04-06T09:26:24;22.45;;;14.73;;
57241;SDS011;43095;53.302;5.786;2023-04-06T09:28:57;18.75;;;13.90;;
57241;SDS011;43095;53.302;5.786;2023-04-06T09:31:30;20.70;;;14.45;;
57241;SDS011;43095;53.302;5.786;2023-04-06T09:34:20;24.25;;;15.25;;
57241;SDS011;43095;53.302;5.786;2023-04-06T09:36:48;22.73;;;15.48;;
57241;SDS011;43095;53.302;5.786;2023-04-06T09:39:15;22.83;;;14.75;;
57241;SDS011;43095;53.302;5.786;2023-04-06T09:41:51;22.38;;;15.15;;
57241;SDS011;43095;53.302;5.786;2023-04-06T09:44:19;25.65;;;15.15;;
57241;SDS011;43095;53.302;5.786;2023-04-06T09:46:46;23.15;;;15.18;;
57241;SDS011;43095;53.302;5.786;2023-04-06T09:49:26;22.75;;;15.63;;
57241;SDS011;43095;53.302;5.786;2023-04-06T09:51:57;23.35;;;16.50;;
57241;SDS011;43095;53.302;5.786;2023-04-06T09:54:28;23.95;;;14.90;;
57241;SDS011;43095;53.302;5.786;2023-04-06T09:59:48;22.48;;;16.30;;
57241;SDS011;43095;53.302;5.786;2023-04-06T10:02:27;23.67;;;14.95;;
57241;SDS011;43095;53.302;5.786;2023-04-06T10:05:19;23.17;;;15.88;;
57241;SDS011;43095;53.302;5.786;2023-04-06T10:07:49;26.40;;;15.55;;
57241;SDS011;43095;53.302;5.786;2023-04-06T10:10:27;24.30;;;15.88;;
57241;SDS011;43095;53.302;5.786;2023-04-06T10:12:55;24.95;;;16.90;;
57241;SDS011;43095;53.302;5.786;2023-04-06T10:15:23;27.92;;;17.63;;
57241;SDS011;43095;53.302;5.786;2023-04-06T10:17:50;24.77;;;16.70;;
57241;SDS011;43095;53.302;5.786;2023-04-06T10:20:23;25.90;;;17.13;;
57241;SDS011;43095;53.302;5.786;2023-04-06T10:25:56;22.60;;;16.45;;
57241;SDS011;43095;53.302;5.786;2023-04-06T10:28:25;25.63;;;17.67;;
57241;SDS011;43095;53.302;5.786;2023-04-06T10:31:00;26.15;;;17.00;;
57241;SDS011;43095;53.302;5.786;2023-04-06T10:33:30;26.58;;;17.15;;
57241;SDS011;43095;53.302;5.786;2023-04-06T10:35:58;25.23;;;17.35;;
57241;SDS011;43095;53.302;5.786;2023-04-06T10:38:37;27.98;;;17.65;;
57241;SDS011;43095;53.302;5.786;2023-04-06T10:41:11;25.40;;;18.60;;
57241;SDS011;43095;53.302;5.786;2023-04-06T10:43:41;33.13;;;18.83;;
57241;SDS011;43095;53.302;5.786;2023-04-06T10:46:09;29.55;;;18.58;;
57241;SDS011;43095;53.302;5.786;2023-04-06T10:48:41;27.25;;;18.38;;
57241;SDS011;43095;53.302;5.786;2023-04-06T10:51:10;25.92;;;17.73;;
57241;SDS011;43095;53.302;5.786;2023-04-06T10:53:38;27.70;;;17.92;;
57241;SDS011;43095;53.302;5.786;2023-04-06T10:56:13;25.42;;;17.17;;
57241;SDS011;43095;53.302;5.786;2023-04-06T10:58:48;27.92;;;18.58;;
57241;SDS011;43095;53.302;5.786;2023-04-06T11:01:20;32.05;;;20.27;;
57241;SDS011;43095;53.302;5.786;2023-04-06T11:03:49;34.90;;;20.92;;
57241;SDS011;43095;53.302;5.786;2023-04-06T11:06:19;33.95;;;20.75;;
57241;SDS011;43095;53.302;5.786;2023-04-06T11:08:50;32.60;;;20.83;;
57241;SDS011;43095;53.302;5.786;2023-04-06T11:11:18;30.15;;;19.83;;
57241;SDS011;43095;53.302;5.786;2023-04-06T11:13:48;29.50;;;20.15;;
57241;SDS011;43095;53.302;5.786;2023-04-06T11:16:17;32.17;;;20.38;;
57241;SDS011;43095;53.302;5.786;2023-04-06T11:18:49;35.78;;;20.38;;
57241;SDS011;43095;53.302;5.786;2023-04-06T11:21:18;33.88;;;20.85;;
57241;SDS011;43095;53.302;5.786;2023-04-06T11:23:46;33.35;;;21.02;;
57241;SDS011;43095;53.302;5.786;2023-04-06T11:26:14;33.17;;;22.23;;
57241;SDS011;43095;53.302;5.786;2023-04-06T11:28:41;36.15;;;22.77;;
57241;SDS011;43095;53.302;5.786;2023-04-06T11:31:12;34.13;;;21.48;;
57241;SDS011;43095;53.302;5.786;2023-04-06T11:33:39;34.33;;;22.58;;
57241;SDS011;43095;53.302;5.786;2023-04-06T11:36:07;38.30;;;23.17;;
57241;SDS011;43095;53.302;5.786;2023-04-06T11:38:34;33.03;;;20.45;;
57241;SDS011;43095;53.302;5.786;2023-04-06T11:41:06;34.75;;;19.98;;
57241;SDS011;43095;53.302;5.786;2023-04-06T11:43:33;31.50;;;20.25;;
57241;SDS011;43095;53.302;5.786;2023-04-06T11:46:01;32.92;;;20.95;;
57241;SDS011;43095;53.302;5.786;2023-04-06T11:48:29;29.65;;;20.48;;
57241;SDS011;43095;53.302;5.786;2023-04-06T11:50:57;27.48;;;19.17;;
57241;SDS011;43095;53.302;5.786;2023-04-06T11:53:28;30.92;;;19.98;;
57241;SDS011;43095;53.302;5.786;2023-04-06T11:55:56;29.67;;;19.42;;
57241;SDS011;43095;53.302;5.786;2023-04-06T11:58:23;29.38;;;19.88;;
57241;SDS011;43095;53.302;5.786;2023-04-06T12:00:50;27.88;;;18.02;;
57241;SDS011;43095;53.302;5.786;2023-04-06T12:03:17;26.35;;;17.90;;
57241;SDS011;43095;53.302;5.786;2023-04-06T12:05:44;29.88;;;17.48;;
57241;SDS011;43095;53.302;5.786;2023-04-06T12:08:11;28.67;;;17.77;;
57241;SDS011;43095;53.302;5.786;2023-04-06T12:10:38;29.77;;;20.40;;
57241;SDS011;43095;53.302;5.786;2023-04-06T12:13:06;23.73;;;16.98;;
57241;SDS011;43095;53.302;5.786;2023-04-06T12:15:33;20.33;;;12.73;;
57241;SDS011;43095;53.302;5.786;2023-04-06T12:18:00;21.05;;;12.02;;
57241;SDS011;43095;53.302;5.786;2023-04-06T12:20:27;24.33;;;15.68;;
57241;SDS011;43095;53.302;5.786;2023-04-06T12:22:54;25.00;;;16.67;;
57241;SDS011;43095;53.302;5.786;2023-04-06T12:25:21;24.92;;;15.77;;
57241;SDS011;43095;53.302;5.786;2023-04-06T12:27:48;23.63;;;15.75;;
57241;SDS011;43095;53.302;5.786;2023-04-06T12:30:19;26.10;;;16.35;;
57241;SDS011;43095;53.302;5.786;2023-04-06T12:32:47;22.08;;;14.57;;
57241;SDS011;43095;53.302;5.786;2023-04-06T12:35:16;24.13;;;15.77;;
57241;SDS011;43095;53.302;5.786;2023-04-06T12:37:43;24.67;;;15.35;;
57241;SDS011;43095;53.302;5.786;2023-04-06T12:40:10;17.85;;;12.57;;
57241;SDS011;43095;53.302;5.786;2023-04-06T12:42:39;20.13;;;12.43;;
57241;SDS011;43095;53.302;5.786;2023-04-06T12:45:08;24.00;;;15.75;;
57241;SDS011;43095;53.302;5.786;2023-04-06T12:47:36;31.92;;;15.70;;
57241;SDS011;43095;53.302;5.786;2023-04-06T12:50:04;27.10;;;16.67;;
57241;SDS011;43095;53.302;5.786;2023-04-06T12:52:32;25.92;;;15.88;;
57241;SDS011;43095;53.302;5.786;2023-04-06T12:55:02;19.88;;;10.00;;
57241;SDS011;43095;53.302;5.786;2023-04-06T12:57:29;11.50;;;8.18;;
57241;SDS011;43095;53.302;5.786;2023-04-06T12:59:57;16.08;;;9.23;;
57241;SDS011;43095;53.302;5.786;2023-04-06T13:02:33;18.23;;;11.63;;
57241;SDS011;43095;53.302;5.786;2023-04-06T13:05:29;25.08;;;16.50;;
57241;SDS011;43095;53.302;5.786;2023-04-06T13:08:00;21.17;;;13.95;;
57241;SDS011;43095;53.302;5.786;2023-04-06T13:10:54;20.83;;;13.73;;
57241;SDS011;43095;53.302;5.786;2023-04-06T13:13:28;18.42;;;11.60;;
57241;SDS011;43095;53.302;5.786;2023-04-06T13:16:08;22.15;;;13.73;;
57241;SDS011;43095;53.302;5.786;2023-04-06T13:18:41;15.77;;;11.50;;
57241;SDS011;43095;53.302;5.786;2023-04-06T13:21:17;14.00;;;10.20;;
57241;SDS011;43095;53.302;5.786;2023-04-06T13:23:55;14.13;;;10.07;;
57241;SDS011;43095;53.302;5.786;2023-04-06T13:26:42;14.75;;;10.02;;
57241;SDS011;43095;53.302;5.786;2023-04-06T13:29:09;13.93;;;9.45;;
57241;SDS011;43095;53.302;5.786;2023-04-06T13:31:55;17.90;;;10.05;;
57241;SDS011;43095;53.302;5.786;2023-04-06T13:34:58;13.55;;;9.40;;
57241;SDS011;43095;53.302;5.786;2023-04-06T13:38:00;13.88;;;9.43;;
57241;SDS011;43095;53.302;5.786;2023-04-06T13:40:30;19.52;;;10.75;;
57241;SDS011;43095;53.302;5.786;2023-04-06T13:43:13;15.50;;;11.63;;
57241;SDS011;43095;53.302;5.786;2023-04-06T13:45:54;18.90;;;12.50;;
57241;SDS011;43095;53.302;5.786;2023-04-06T13:49:10;22.13;;;14.68;;
57241;SDS011;43095;53.302;5.786;2023-04-06T13:51:39;22.33;;;15.02;;
57241;SDS011;43095;53.302;5.786;2023-04-06T13:54:25;27.40;;;16.35;;
57241;SDS011;43095;53.302;5.786;2023-04-06T13:56:56;27.00;;;17.15;;
57241;SDS011;43095;53.302;5.786;2023-04-06T13:59:24;23.52;;;16.50;;
57241;SDS011;43095;53.302;5.786;2023-04-06T14:02:28;25.95;;;17.35;;
57241;SDS011;43095;53.302;5.786;2023-04-06T14:05:04;26.17;;;16.75;;
57241;SDS011;43095;53.302;5.786;2023-04-06T14:08:01;23.13;;;15.20;;
57241;SDS011;43095;53.302;5.786;2023-04-06T14:10:33;25.08;;;16.73;;
57241;SDS011;43095;53.302;5.786;2023-04-06T14:13:20;26.02;;;15.95;;
57241;SDS011;43095;53.302;5.786;2023-04-06T14:16:18;23.42;;;15.43;;
57241;SDS011;43095;53.302;5.786;2023-04-06T14:19:10;27.73;;;16.42;;
57241;SDS011;43095;53.302;5.786;2023-04-06T14:21:44;27.30;;;17.77;;
57241;SDS011;43095;53.302;5.786;2023-04-06T14:24:23;24.83;;;16.90;;
57241;SDS011;43095;53.302;5.786;2023-04-06T14:26:51;25.30;;;17.70;;
57241;SDS011;43095;53.302;5.786;2023-04-06T14:29:58;28.10;;;17.77;;
57241;SDS011;43095;53.302;5.786;2023-04-06T14:32:35;25.35;;;16.67;;
57241;SDS011;43095;53.302;5.786;2023-04-06T14:35:18;25.98;;;17.40;;
57241;SDS011;43095;53.302;5.786;2023-04-06T14:38:00;28.98;;;18.75;;
57241;SDS011;43095;53.302;5.786;2023-04-06T14:40:35;27.52;;;17.75;;
57241;SDS011;43095;53.302;5.786;2023-04-06T14:43:18;29.35;;;18.95;;
57241;SDS011;43095;53.302;5.786;2023-04-06T14:45:54;25.83;;;17.80;;
57241;SDS011;43095;53.302;5.786;2023-04-06T14:52:22;29.60;;;18.92;;
57241;SDS011;43095;53.302;5.786;2023-04-06T14:55:24;27.23;;;18.90;;
57241;SDS011;43095;53.302;5.786;2023-04-06T14:58:22;31.27;;;20.38;;
57241;SDS011;43095;53.302;5.786;2023-04-06T15:01:08;28.85;;;20.00;;
57241;SDS011;43095;53.302;5.786;2023-04-06T15:03:51;32.13;;;20.85;;
57241;SDS011;43095;53.302;5.786;2023-04-06T15:06:39;30.23;;;21.85;;
57241;SDS011;43095;53.302;5.786;2023-04-06T15:09:51;31.67;;;21.20;;
57241;SDS011;43095;53.302;5.786;2023-04-06T15:13:35;31.77;;;21.67;;
57241;SDS011;43095;53.302;5.786;2023-04-06T15:17:13;34.22;;;23.40;;
57241;SDS011;43095;53.302;5.786;2023-04-06T15:20:07;34.28;;;23.20;;
57241;SDS011;43095;53.302;5.786;2023-04-06T15:22:49;31.15;;;21.30;;
57241;SDS011;43095;53.302;5.786;2023-04-06T15:25:57;33.35;;;22.77;;